createdAt,value
2023-03-08T00:01:46.038Z,7.28
2023-03-08T00:04:12.478Z,7.21
2023-03-08T00:06:38.837Z,7.19
2023-03-08T00:09:05.198Z,7.15
2023-03-08T00:11:31.546Z,7.12
2023-03-08T00:13:57.905Z,7.04
2023-03-08T00:16:24.374Z,7.01
2023-03-08T00:18:50.615Z,6.96
2023-03-08T00:21:16.968Z,6.86
2023-03-08T00:23:43.286Z,6.82
2023-03-08T00:26:09.716Z,6.88
2023-03-08T00:28:36.055Z,6.87
2023-03-08T00:31:02.473Z,6.79
2023-03-08T00:33:28.790Z,6.78
2023-03-08T00:35:55.139Z,6.84
2023-03-08T00:38:21.537Z,6.94
2023-03-08T00:40:47.920Z,6.86
2023-03-08T00:43:14.279Z,6.92
2023-03-08T00:45:40.634Z,6.98
2023-03-08T00:48:06.963Z,6.98
2023-03-08T00:50:33.645Z,6.87
2023-03-08T00:53:00.002Z,6.86
2023-03-08T00:55:26.335Z,6.85
2023-03-08T00:57:52.693Z,6.87
2023-03-08T01:00:19.075Z,6.89
2023-03-08T01:02:45.432Z,6.84
2023-03-08T01:05:11.804Z,6.77
2023-03-08T01:07:38.156Z,6.67
2023-03-08T01:10:04.501Z,6.56
2023-03-08T01:12:30.875Z,6.49
2023-03-08T01:14:57.197Z,6.49
2023-03-08T01:17:23.592Z,6.32
2023-03-08T01:19:49.940Z,6.13
2023-03-08T01:22:16.279Z,6.14
2023-03-08T01:24:42.638Z,6.12
2023-03-08T01:27:08.977Z,6.16
2023-03-08T01:29:35.378Z,6.15
2023-03-08T01:32:01.766Z,6.19
2023-03-08T01:34:28.089Z,6.35
2023-03-08T01:36:54.475Z,6.08
2023-03-08T01:39:20.843Z,6.11
2023-03-08T01:41:47.199Z,6.12
2023-03-08T01:44:13.591Z,6.00
2023-03-08T01:46:39.966Z,6.00
2023-03-08T01:49:06.323Z,6.11
2023-03-08T01:51:32.733Z,6.09
2023-03-08T01:53:59.042Z,6.10
2023-03-08T01:56:25.392Z,6.13
2023-03-08T01:58:51.759Z,6.09
2023-03-08T02:01:18.258Z,6.07
2023-03-08T02:03:44.555Z,6.04
2023-03-08T02:06:11.003Z,6.04
2023-03-08T02:08:37.391Z,5.94
2023-03-08T02:11:03.733Z,5.94
2023-03-08T02:13:30.072Z,5.79
2023-03-08T02:15:56.418Z,5.74
2023-03-08T02:18:22.791Z,5.77
2023-03-08T02:20:49.170Z,5.66
2023-03-08T02:23:15.521Z,5.71
2023-03-08T02:25:41.903Z,5.66
2023-03-08T02:28:08.282Z,5.65
2023-03-08T02:30:34.643Z,5.65
2023-03-08T02:33:01.079Z,5.62
2023-03-08T02:35:27.458Z,5.58
2023-03-08T02:37:53.772Z,5.48
2023-03-08T02:40:20.160Z,5.54
2023-03-08T02:42:46.541Z,5.55
2023-03-08T02:45:12.886Z,5.41
2023-03-08T02:47:39.206Z,5.28
2023-03-08T02:50:05.595Z,5.25
2023-03-08T02:52:31.945Z,5.35
2023-03-08T02:54:58.315Z,5.46
2023-03-08T02:57:25.036Z,5.41
2023-03-08T02:59:51.375Z,5.35
2023-03-08T03:02:17.741Z,5.29
2023-03-08T03:04:44.079Z,5.34
2023-03-08T03:07:10.438Z,5.28
2023-03-08T03:09:36.816Z,5.36
2023-03-08T03:12:03.203Z,5.43
2023-03-08T03:14:29.604Z,5.37
2023-03-08T03:16:55.910Z,5.43
2023-03-08T03:19:22.326Z,5.52
2023-03-08T03:21:48.642Z,5.50
2023-03-08T03:24:15.019Z,5.48
2023-03-08T03:26:41.345Z,5.49
2023-03-08T03:29:07.750Z,5.46
2023-03-08T03:31:34.072Z,5.50
2023-03-08T03:34:00.446Z,5.45
2023-03-08T03:36:26.795Z,5.22
2023-03-08T03:38:53.225Z,5.22
2023-03-08T03:41:19.581Z,5.24
2023-03-08T03:43:45.915Z,5.17
2023-03-08T03:46:12.358Z,5.13
2023-03-08T03:48:38.742Z,5.20
2023-03-08T03:51:05.114Z,5.25
2023-03-08T03:53:31.488Z,5.18
2023-03-08T03:55:57.880Z,5.10
2023-03-08T03:58:24.216Z,5.07
2023-03-08T04:00:50.540Z,5.11
2023-03-08T04:03:17.083Z,5.15
2023-03-08T04:05:43.294Z,5.17
2023-03-08T04:08:09.649Z,5.21
2023-03-08T04:10:35.976Z,5.17
2023-03-08T04:13:02.373Z,5.07
2023-03-08T04:15:28.683Z,5.05
2023-03-08T04:17:55.058Z,5.02
2023-03-08T04:20:21.415Z,5.02
2023-03-08T04:22:47.806Z,4.84
2023-03-08T04:25:14.132Z,4.86
2023-03-08T04:27:40.514Z,4.91
2023-03-08T04:30:06.835Z,5.02
2023-03-08T04:32:33.259Z,5.00
2023-03-08T04:34:59.544Z,5.07
2023-03-08T04:37:25.888Z,5.13
2023-03-08T04:39:52.226Z,5.11
2023-03-08T04:42:18.576Z,5.06
2023-03-08T04:44:44.919Z,5.11
2023-03-08T04:47:11.289Z,5.14
2023-03-08T04:49:37.665Z,5.16
2023-03-08T04:52:04.053Z,5.18
2023-03-08T04:54:30.380Z,5.11
2023-03-08T04:56:56.749Z,5.04
2023-03-08T04:59:23.099Z,5.00
2023-03-08T05:01:49.528Z,4.88
2023-03-08T05:04:15.799Z,4.89
2023-03-08T05:06:42.186Z,4.81
2023-03-08T05:09:08.547Z,4.82
2023-03-08T05:11:34.962Z,4.87
2023-03-08T05:14:01.305Z,4.97
2023-03-08T05:16:27.672Z,5.15
2023-03-08T05:18:54.029Z,5.60
2023-03-08T05:21:20.419Z,5.77
2023-03-08T05:23:46.781Z,6.09
2023-03-08T05:26:13.120Z,6.18
2023-03-08T05:28:39.483Z,6.35
2023-03-08T05:31:05.827Z,6.49
2023-03-08T05:33:32.148Z,6.13
2023-03-08T05:35:58.613Z,6.18
2023-03-08T05:38:24.919Z,5.94
2023-03-08T05:40:51.380Z,5.97
2023-03-08T05:43:17.700Z,5.95
2023-03-08T05:45:44.182Z,5.87
2023-03-08T05:48:10.463Z,5.84
2023-03-08T05:50:37.012Z,5.74
2023-03-08T05:53:03.371Z,5.59
2023-03-08T05:55:29.780Z,5.48
2023-03-08T05:57:56.156Z,5.72
2023-03-08T06:00:22.521Z,6.41
2023-03-08T06:02:51.442Z,6.99
2023-03-08T06:05:17.704Z,7.52
2023-03-08T06:07:44.049Z,7.95
2023-03-08T06:10:10.417Z,8.26
2023-03-08T06:12:36.784Z,8.43
2023-03-08T06:15:03.174Z,7.96
2023-03-08T06:17:29.537Z,7.37
2023-03-08T06:19:55.978Z,7.01
2023-03-08T06:22:22.379Z,6.72
2023-03-08T06:24:48.797Z,7.23
2023-03-08T06:27:15.152Z,7.91
2023-03-08T06:29:41.505Z,8.54
2023-03-08T06:32:07.872Z,9.12
2023-03-08T06:34:34.175Z,9.58
2023-03-08T06:37:00.498Z,10.08
2023-03-08T06:39:26.867Z,10.27
2023-03-08T06:41:53.347Z,10.37
2023-03-08T06:44:19.705Z,10.85
2023-03-08T06:46:46.139Z,11.29
2023-03-08T06:49:12.481Z,11.40
2023-03-08T06:51:38.827Z,11.17
2023-03-08T06:54:05.256Z,11.67
2023-03-08T06:56:31.630Z,12.01
2023-03-08T06:58:57.947Z,12.55
2023-03-08T07:01:24.327Z,12.93
2023-03-08T07:03:50.745Z,13.29
2023-03-08T07:06:17.069Z,13.83
2023-03-08T07:08:43.857Z,14.16
2023-03-08T07:11:10.248Z,14.46
2023-03-08T07:13:36.631Z,13.28
2023-03-08T07:16:02.963Z,12.84
2023-03-08T07:18:29.293Z,12.95
2023-03-08T07:20:55.674Z,13.01
2023-03-08T07:23:22.075Z,13.08
2023-03-08T07:25:55.852Z,12.34
2023-03-08T07:28:22.261Z,12.04
2023-03-08T07:30:48.565Z,11.78
2023-03-08T07:33:14.975Z,11.83
2023-03-08T07:35:41.397Z,11.86
2023-03-08T07:38:07.731Z,11.80
2023-03-08T07:40:34.118Z,11.45
2023-03-08T07:43:00.506Z,11.66
2023-03-08T07:45:26.850Z,11.83
2023-03-08T07:47:53.211Z,12.05
2023-03-08T07:50:19.567Z,12.23
2023-03-08T07:52:45.963Z,12.59
2023-03-08T07:55:13.458Z,12.32
2023-03-08T07:57:39.881Z,12.20
2023-03-08T08:00:06.201Z,12.23
2023-03-08T08:02:32.603Z,12.63
2023-03-08T08:04:59.058Z,12.51
2023-03-08T08:07:26.430Z,12.33
2023-03-08T08:09:52.814Z,12.43
2023-03-08T08:12:19.277Z,12.12
2023-03-08T08:14:45.600Z,12.04
2023-03-08T08:17:11.971Z,12.50
2023-03-08T08:19:38.283Z,12.96
2023-03-08T08:22:04.741Z,12.83
2023-03-08T08:24:31.070Z,12.87
2023-03-08T08:26:57.411Z,12.96
2023-03-08T08:29:23.785Z,13.43
2023-03-08T08:31:50.250Z,13.70
2023-03-08T08:34:16.690Z,14.20
2023-03-08T08:36:43.062Z,14.09
2023-03-08T08:39:09.403Z,13.85
2023-03-08T08:41:35.808Z,14.77
2023-03-08T08:44:02.133Z,15.13
2023-03-08T08:46:28.543Z,15.68
2023-03-08T08:48:54.893Z,16.42
2023-03-08T08:51:21.252Z,16.37
2023-03-08T08:53:47.616Z,16.47
2023-03-08T08:56:25.686Z,16.04
2023-03-08T08:58:40.391Z,15.60
2023-03-08T09:01:09.177Z,15.09
2023-03-08T09:03:33.256Z,14.97
2023-03-08T09:05:59.706Z,15.09
2023-03-08T09:08:26.083Z,14.83
2023-03-08T09:10:52.431Z,14.51
2023-03-08T09:13:18.871Z,14.51
2023-03-08T09:15:45.141Z,14.17
2023-03-08T09:18:11.715Z,14.22
2023-03-08T09:20:38.092Z,14.04
2023-03-08T09:23:04.571Z,13.99
2023-03-08T09:25:30.952Z,13.89
2023-03-08T09:27:57.267Z,14.00
2023-03-08T09:30:23.632Z,14.26
2023-03-08T09:32:50.020Z,14.43
2023-03-08T09:35:16.328Z,14.78
2023-03-08T09:37:42.652Z,15.15
2023-03-08T09:40:09.006Z,15.41
2023-03-08T09:42:35.350Z,15.85
2023-03-08T09:45:01.731Z,16.52
2023-03-08T09:47:28.076Z,17.02
2023-03-08T09:49:54.431Z,17.11
2023-03-08T09:52:20.880Z,17.02
2023-03-08T09:54:47.415Z,17.18
2023-03-08T09:57:13.746Z,17.84
2023-03-08T09:59:40.100Z,18.20
2023-03-08T10:02:06.476Z,18.07
2023-03-08T10:04:32.925Z,18.12
2023-03-08T10:06:59.228Z,17.79
2023-03-08T10:09:25.604Z,18.20
2023-03-08T10:11:51.972Z,18.36
2023-03-08T10:14:20.690Z,18.43
2023-03-08T10:16:47.076Z,18.39
2023-03-08T10:19:13.385Z,19.22
2023-03-08T10:21:39.780Z,19.48
2023-03-08T10:24:06.117Z,19.72
2023-03-08T10:26:32.446Z,19.92
2023-03-08T10:28:58.799Z,19.35
2023-03-08T10:31:25.154Z,19.04
2023-03-08T10:33:51.511Z,19.71
2023-03-08T10:36:17.883Z,19.36
2023-03-08T10:38:44.229Z,18.17
2023-03-08T10:41:10.615Z,18.09
2023-03-08T10:43:37.001Z,18.03
2023-03-08T10:46:03.398Z,17.90
2023-03-08T10:48:29.743Z,17.90
2023-03-08T10:50:56.106Z,17.86
2023-03-08T10:53:22.477Z,18.24
2023-03-08T10:55:48.846Z,18.63
2023-03-08T10:58:15.226Z,18.52
2023-03-08T11:00:41.537Z,18.52
2023-03-08T11:03:07.918Z,18.00
2023-03-08T11:05:34.235Z,17.16
2023-03-08T11:08:00.609Z,17.27
2023-03-08T11:10:27.007Z,17.36
2023-03-08T11:12:53.377Z,17.48
2023-03-08T11:15:20.828Z,17.34
2023-03-08T11:17:47.188Z,17.35
2023-03-08T11:20:13.630Z,17.79
2023-03-08T11:22:39.988Z,17.65
2023-03-08T11:25:06.404Z,17.49
2023-03-08T11:27:32.815Z,18.03
2023-03-08T11:30:00.327Z,19.13
2023-03-08T11:32:26.858Z,19.94
2023-03-08T11:34:53.136Z,20.98
2023-03-08T11:37:19.462Z,21.22
2023-03-08T11:39:45.801Z,21.06
2023-03-08T11:42:12.549Z,20.66
2023-03-08T11:44:38.504Z,19.63
2023-03-08T11:47:04.870Z,19.39
2023-03-08T11:49:31.264Z,19.52
2023-03-08T11:51:57.666Z,19.56
2023-03-08T11:54:24.092Z,19.70
2023-03-08T11:56:50.418Z,19.89
2023-03-08T11:59:16.812Z,19.59
2023-03-08T12:01:43.191Z,19.71
2023-03-08T12:04:09.649Z,19.66
2023-03-08T12:06:35.959Z,19.28
2023-03-08T12:09:02.257Z,19.03
2023-03-08T12:11:28.616Z,19.39
2023-03-08T12:13:54.943Z,19.90
2023-03-08T12:16:21.441Z,20.21
2023-03-08T12:18:47.689Z,20.40
2023-03-08T12:21:14.008Z,20.48
2023-03-08T12:23:40.385Z,20.84
2023-03-08T12:26:06.795Z,19.92
2023-03-08T12:28:33.176Z,18.91
2023-03-08T12:30:59.583Z,18.26
2023-03-08T12:33:26.134Z,18.08
2023-03-08T12:35:52.467Z,18.24
2023-03-08T12:38:18.825Z,18.02
2023-03-08T12:40:45.134Z,17.99
2023-03-08T12:43:11.448Z,17.60
2023-03-08T12:45:37.882Z,17.52
2023-03-08T12:48:04.270Z,17.54
2023-03-08T12:50:30.657Z,18.14
2023-03-08T12:52:56.977Z,18.12
2023-03-08T12:55:23.297Z,17.93
2023-03-08T12:57:49.697Z,17.83
2023-03-08T13:00:16.071Z,17.55
2023-03-08T13:02:42.426Z,17.48
2023-03-08T13:05:09.970Z,17.72
2023-03-08T13:07:36.311Z,17.70
2023-03-08T13:10:02.675Z,18.68
2023-03-08T13:12:29.027Z,19.32
2023-03-08T13:14:55.379Z,20.03
2023-03-08T13:17:21.723Z,20.24
2023-03-08T13:19:48.130Z,20.49
2023-03-08T13:22:14.573Z,20.02
2023-03-08T13:24:40.841Z,19.27
2023-03-08T13:27:07.225Z,18.65
2023-03-08T13:29:33.784Z,18.34
2023-03-08T13:32:00.100Z,18.37
2023-03-08T13:34:26.477Z,18.20
2023-03-08T13:36:52.844Z,18.26
2023-03-08T13:39:19.178Z,18.26
2023-03-08T13:41:45.552Z,18.24
2023-03-08T13:44:11.920Z,18.24
2023-03-08T13:46:38.289Z,18.26
2023-03-08T13:49:04.692Z,18.29
2023-03-08T13:51:31.008Z,18.31
2023-03-08T13:53:57.341Z,18.42
2023-03-08T13:56:23.807Z,18.43
2023-03-08T13:58:50.082Z,18.33
2023-03-08T14:01:16.512Z,18.25
2023-03-08T14:03:42.931Z,18.16
2023-03-08T14:06:09.373Z,18.08
2023-03-08T14:08:35.636Z,18.04
2023-03-08T14:11:02.080Z,18.00
2023-03-08T14:13:28.369Z,17.71
2023-03-08T14:15:54.769Z,17.63
2023-03-08T14:18:21.161Z,17.30
2023-03-08T14:20:47.622Z,17.26
2023-03-08T14:23:15.361Z,17.15
2023-03-08T14:25:40.389Z,17.11
2023-03-08T14:28:06.810Z,17.11
2023-03-08T14:30:33.189Z,17.14
2023-03-08T14:32:59.634Z,17.17
2023-03-08T14:35:25.967Z,17.18
2023-03-08T14:37:52.290Z,17.17
2023-03-08T14:40:18.673Z,17.13
2023-03-08T14:42:45.001Z,17.16
2023-03-08T14:45:11.409Z,17.03
2023-03-08T14:47:37.766Z,16.98
2023-03-08T14:50:04.156Z,16.92
2023-03-08T14:52:30.489Z,16.94
2023-03-08T14:54:56.902Z,16.88
2023-03-08T14:57:23.318Z,16.90
2023-03-08T14:59:49.698Z,16.88
2023-03-08T15:02:16.079Z,16.84
2023-03-08T15:04:42.428Z,16.78
2023-03-08T15:07:09.337Z,16.66
2023-03-08T15:09:35.751Z,16.61
2023-03-08T15:12:02.127Z,16.49
2023-03-08T15:14:28.464Z,16.47
2023-03-08T15:16:54.804Z,16.38
2023-03-08T15:19:21.157Z,16.32
2023-03-08T15:21:47.700Z,16.28
2023-03-08T15:24:14.102Z,16.23
2023-03-08T15:26:40.498Z,16.25
2023-03-08T15:29:06.841Z,16.18
2023-03-08T15:31:33.255Z,16.17
2023-03-08T15:34:00.554Z,16.11
2023-03-08T15:36:25.971Z,16.11
2023-03-08T15:38:52.361Z,16.10
2023-03-08T15:41:18.724Z,16.13
2023-03-08T15:43:45.076Z,16.08
2023-03-08T15:46:11.487Z,16.03
2023-03-08T15:48:37.840Z,15.95
2023-03-08T15:51:04.167Z,15.90
2023-03-08T15:53:35.729Z,15.85
2023-03-08T15:55:56.939Z,15.83
2023-03-08T15:58:23.310Z,15.82
2023-03-08T16:00:49.697Z,15.75
2023-03-08T16:03:16.088Z,15.65
2023-03-08T16:05:42.404Z,15.57
2023-03-08T16:08:08.808Z,15.42
2023-03-08T16:10:35.193Z,15.33
2023-03-08T16:13:01.585Z,15.22
2023-03-08T16:15:27.907Z,15.14
2023-03-08T16:17:54.566Z,15.07
2023-03-08T16:20:20.936Z,14.95
2023-03-08T16:22:47.286Z,14.82
2023-03-08T16:25:13.727Z,14.74
2023-03-08T16:27:40.081Z,14.67
2023-03-08T16:30:06.465Z,14.59
2023-03-08T16:32:32.915Z,14.54
2023-03-08T16:34:59.190Z,14.47
2023-03-08T16:37:25.961Z,14.38
2023-03-08T16:39:52.327Z,14.30
2023-03-08T16:42:18.673Z,14.22
2023-03-08T16:44:45.098Z,14.18
2023-03-08T16:47:11.499Z,14.15
2023-03-08T16:49:37.804Z,14.07
2023-03-08T16:52:04.159Z,13.99
2023-03-08T16:54:30.526Z,13.92
2023-03-08T16:57:04.832Z,13.89
2023-03-08T16:59:25.452Z,13.86
2023-03-08T17:01:51.855Z,13.79
2023-03-08T17:04:18.198Z,13.78
2023-03-08T17:06:44.626Z,13.74
2023-03-08T17:09:11.964Z,13.69
2023-03-08T17:11:37.342Z,13.66
2023-03-08T17:14:03.703Z,13.64
2023-03-08T17:16:30.136Z,13.63
2023-03-08T17:18:56.495Z,13.61
2023-03-08T17:21:22.893Z,13.59
2023-03-08T17:23:49.278Z,13.56
2023-03-08T17:26:16.814Z,13.55
2023-03-08T17:28:43.310Z,13.51
2023-03-08T17:31:09.704Z,13.50
2023-03-08T17:33:36.072Z,13.47
2023-03-08T17:36:02.566Z,13.45
2023-03-08T17:38:28.788Z,13.45
2023-03-08T17:40:55.223Z,13.41
2023-03-08T17:43:21.539Z,13.37
2023-03-08T17:45:47.970Z,13.37
2023-03-08T17:48:14.353Z,13.35
2023-03-08T17:50:40.723Z,13.36
2023-03-08T17:53:07.043Z,13.32
2023-03-08T17:55:33.397Z,13.27
2023-03-08T17:57:59.795Z,13.26
2023-03-08T18:00:27.636Z,13.23
2023-03-08T18:02:53.957Z,13.17
2023-03-08T18:05:20.306Z,13.16
2023-03-08T18:07:49.293Z,13.18
2023-03-08T18:10:15.681Z,13.20
2023-03-08T18:12:42.009Z,13.19
2023-03-08T18:15:08.394Z,13.17
2023-03-08T18:17:34.818Z,13.13
2023-03-08T18:20:01.166Z,13.09
2023-03-08T18:22:27.495Z,13.02
2023-03-08T18:24:53.898Z,13.00
2023-03-08T18:27:20.499Z,12.97
2023-03-08T18:29:46.908Z,12.92
2023-03-08T18:32:13.325Z,12.85
2023-03-08T18:34:39.651Z,12.80
2023-03-08T18:37:06.047Z,12.78
2023-03-08T18:39:32.450Z,12.76
2023-03-08T18:41:58.768Z,12.74
2023-03-08T18:44:25.442Z,12.73
2023-03-08T18:46:51.962Z,12.72
2023-03-08T18:49:18.322Z,12.71
2023-03-08T18:51:44.835Z,12.68
2023-03-08T18:54:11.388Z,12.67
2023-03-08T18:56:37.774Z,12.69
2023-03-08T18:59:04.110Z,12.69
2023-03-08T19:01:30.536Z,12.68
2023-03-08T19:03:56.918Z,12.67
2023-03-08T19:06:23.313Z,12.69
2023-03-08T19:08:49.753Z,12.69
2023-03-08T19:11:16.364Z,12.68
2023-03-08T19:13:43.792Z,12.66
2023-03-08T19:16:10.125Z,12.63
2023-03-08T19:18:40.447Z,12.60
2023-03-08T19:21:09.508Z,12.60
2023-03-08T19:23:35.990Z,12.49
2023-03-08T19:26:02.369Z,12.28
2023-03-08T19:28:28.712Z,11.99
2023-03-08T19:30:55.313Z,11.83
2023-03-08T19:33:31.304Z,11.72
2023-03-08T19:35:48.072Z,11.64
2023-03-08T19:38:14.485Z,11.58
2023-03-08T19:40:40.818Z,11.53
2023-03-08T19:43:07.231Z,11.41
2023-03-08T19:45:33.767Z,11.41
2023-03-08T19:48:00.127Z,11.37
2023-03-08T19:50:26.446Z,11.31
2023-03-08T19:52:52.815Z,11.28
2023-03-08T19:55:19.285Z,11.18
2023-03-08T19:57:46.740Z,11.10
2023-03-08T20:00:13.056Z,11.10
2023-03-08T20:02:39.475Z,11.12
2023-03-08T20:05:05.831Z,11.11
2023-03-08T20:07:32.384Z,11.07
2023-03-08T20:10:07.352Z,11.03
2023-03-08T20:12:25.176Z,10.98
2023-03-08T20:14:51.506Z,10.94
2023-03-08T20:17:17.922Z,10.91
2023-03-08T20:19:45.290Z,10.86
2023-03-08T20:22:11.708Z,10.81
2023-03-08T20:24:38.113Z,10.77
2023-03-08T20:27:05.573Z,10.75
2023-03-08T20:29:31.903Z,10.74
2023-03-08T20:31:58.444Z,10.68
2023-03-08T20:34:24.816Z,10.66
2023-03-08T20:36:53.291Z,10.68
2023-03-08T20:39:19.617Z,10.65
2023-03-08T20:41:46.097Z,10.59
2023-03-08T20:44:12.582Z,10.52
2023-03-08T20:46:38.927Z,10.53
2023-03-08T20:49:05.253Z,10.43
2023-03-08T20:51:31.649Z,10.37
2023-03-08T20:53:58.104Z,10.30
2023-03-08T20:56:26.739Z,10.27
2023-03-08T20:58:53.128Z,10.22
2023-03-08T21:01:19.556Z,10.18
2023-03-08T21:03:45.909Z,10.20
2023-03-08T21:06:12.307Z,10.19
2023-03-08T21:08:38.646Z,10.23
2023-03-08T21:11:05.061Z,10.23
2023-03-08T21:13:31.415Z,10.26
2023-03-08T21:15:57.844Z,10.26
2023-03-08T21:18:24.195Z,10.26
2023-03-08T21:20:50.785Z,10.28
2023-03-08T21:23:17.104Z,10.05
2023-03-08T21:25:43.500Z,9.84
2023-03-08T21:28:09.865Z,9.63
2023-03-08T21:30:38.623Z,9.47
2023-03-08T21:33:04.953Z,9.37
2023-03-08T21:35:31.351Z,9.26
2023-03-08T21:37:57.630Z,9.18
2023-03-08T21:40:23.970Z,9.15
2023-03-08T21:42:50.335Z,9.13
2023-03-08T21:45:16.677Z,9.07
2023-03-08T21:47:45.655Z,9.07
2023-03-08T21:50:12.048Z,9.14
2023-03-08T21:52:38.392Z,9.19
2023-03-08T21:55:04.746Z,9.16
2023-03-08T21:57:31.132Z,9.11
2023-03-08T21:59:57.462Z,9.01
2023-03-08T22:02:23.874Z,8.86
2023-03-08T22:04:50.217Z,8.74
2023-03-08T22:07:16.568Z,8.65
2023-03-08T22:09:42.947Z,8.65
2023-03-08T22:12:09.268Z,8.60
2023-03-08T22:14:35.629Z,8.56
2023-03-08T22:17:04.126Z,8.50
2023-03-08T22:19:30.481Z,8.41
2023-03-08T22:21:56.823Z,8.34
2023-03-08T22:24:23.179Z,8.28
2023-03-08T22:26:49.671Z,8.26
2023-03-08T22:29:16.041Z,8.29
2023-03-08T22:31:42.485Z,8.33
2023-03-08T22:34:08.756Z,8.42
2023-03-08T22:36:35.112Z,8.49
2023-03-08T22:39:01.534Z,8.60
2023-03-08T22:41:27.896Z,8.57
2023-03-08T22:43:54.211Z,8.57
2023-03-08T22:46:20.548Z,8.66
2023-03-08T22:48:46.870Z,8.70
2023-03-08T22:51:13.243Z,8.73
2023-03-08T22:53:39.561Z,8.69
2023-03-08T22:56:05.957Z,8.66
2023-03-08T22:58:32.276Z,8.65
2023-03-08T23:00:58.624Z,8.65
2023-03-08T23:03:25.047Z,8.68
2023-03-08T23:05:51.478Z,8.68
2023-03-08T23:08:17.839Z,8.71
2023-03-08T23:10:44.219Z,8.69
2023-03-08T23:13:14.344Z,8.71
2023-03-08T23:15:36.922Z,8.72
2023-03-08T23:18:03.251Z,8.76
2023-03-08T23:20:29.675Z,8.75
2023-03-08T23:22:55.974Z,8.79
2023-03-08T23:25:22.339Z,8.78
2023-03-08T23:27:48.691Z,8.76
2023-03-08T23:30:15.085Z,8.73
2023-03-08T23:32:41.459Z,8.71
2023-03-08T23:35:07.776Z,8.67
2023-03-08T23:37:34.143Z,8.65
2023-03-08T23:40:00.514Z,8.59
2023-03-08T23:42:26.873Z,8.55
2023-03-08T23:44:53.211Z,8.46
2023-03-08T23:47:19.568Z,8.40
2023-03-08T23:49:45.917Z,8.36
2023-03-08T23:52:12.282Z,8.29
2023-03-08T23:54:38.686Z,8.05
2023-03-08T23:57:05.044Z,7.98
2023-03-08T23:59:31.392Z,8.00
